Walton, West Virginia
Current Conditions -  °F | °C
As of 9:54 PM on Friday 24 Oct 2014 (Local Time) from KCRW Reporting Station
Clear Clear  
Wind Chill: 46°   Ceiling: Unl
Heat Index: 46°   Visibility: 10mi
Dew Point: 42°   Wind: 0mph
Humidity: 86%   Direction: NA
Pressure: 30.06"   Gusts: NA
Location:  38.64°N, 81.4°W
Report Text: KCRW 250154Z 00000KT 10SM CLR 08/06 A3006 RMK AO2 SLP181 T00780056
Loading
Personal Weather Stations






























Interactive Weather Map
Tropical Storm Tracking
New forecast layout! Learn more

10-Day Weather Forecast

Advertisements
Track Severe Weather on mobile